METAR AND TAF INFORMATION

METAR FOR KOJC
ADDS - METARS form results

(2349 UTC 11 April 2021)
Data provider http://aviationweather.gov/metar/data/
 
METAR text: KOJC 112253Z 36006KT 10SM CLR 26/05 A2956 RMK AO2 SLP003 T02560050
Conditions at: KOJC (OLATHE/EXECUTIVE, KS, US) observed 2253 UTC 11 April 2021
Temperature: 25.6°C (78°F)
Dewpoint: 5.0°C (41°F) [RH = 27%]
Pressure (altimeter): 29.56 inches Hg (1001.1 mb)
[Sea-level pressure: 1000.3 mb]
Winds: from the N (360 degrees) at 7 MPH (6 knots; 3.1 m/s)
Visibility: 10 or more miles (16+ km)
Ceiling: at least 12,000 feet AGL
Clouds: sky clear below 12,000 feet AGL
Weather: no significant weather observed at this time

 

AIRPORT MAP

 

RUNWAY INFORMATION

Runway 18 Runway length 4098 ft Runway width 75 ft
Runway elevation 1096 ft Runway displaced threshold 0 ft Runway heading 180
Runway 36 Runway length 4098 ft Runway width 75 ft
Runway elevation 1050 ft Runway displaced threshold 0 ft Runway heading 0

 

AIRPORT FREQUENCIES

Type A/D Name KANSAS CIT Frequency 118.9 MHZ
Type ATIS Name ATIS Frequency 119.35 MHZ
Type CTAF Name CTAF Frequency 126 MHZ
Type GND Name GND Frequency 121.6 MHZ
Type RDO Name COLUMBIA R Frequency 122.15 MHZ
Type TWR Name EXECUTIVE Frequency 126 MHZ
Type UNIC Name UNICOM Frequency 122.95 MHZ

 

AIRPORT NEAR NAVIGATION AIDS